Hinton, Missouri
Current Conditions -  °F | °C
As of 1:54 AM on Friday 24 Oct 2014 (Local Time) from KCOU Reporting Station
Moderate Fog Moderate Fog  
Wind Chill: 51°   Ceiling: 2600
Heat Index: 51°   Visibility: 0.25mi
Dew Point: 51°   Wind: 5mph
Humidity: 100%   Direction: 210°SSW
Pressure: 30.1"   Gusts: NA
Location:  39.0235°N, 92.2896°W
Report Text: KCOU 240654Z AUTO 21004KT 1/4SM FG SCT007 BKN026 11/11 A3010 RMK AO2 SLP190 T01060106
Loading
Personal Weather Stations






























Interactive Weather Map New forecast layout! Learn more

10-Day Weather Forecast

Advertisements
Track Severe Weather on mobile